createdAt,value
2023-02-16T00:02:33.651Z,17.70
2023-02-16T00:05:32.851Z,17.93
2023-02-16T00:08:19.846Z,19.87
2023-02-16T00:11:31.576Z,19.33
2023-02-16T00:14:22.594Z,19.87
2023-02-16T00:17:11.245Z,17.07
2023-02-16T00:19:58.153Z,17.10
2023-02-16T00:22:45.118Z,18.67
2023-02-16T00:25:32.061Z,18.43
2023-02-16T00:28:21.079Z,18.53
2023-02-16T00:31:16.979Z,17.87
2023-02-16T00:34:28.922Z,19.30
2023-02-16T00:37:16.167Z,19.00
2023-02-16T00:40:03.751Z,18.80
2023-02-16T00:42:50.768Z,18.07
2023-02-16T00:45:38.201Z,18.13
2023-02-16T00:48:25.296Z,18.33
2023-02-16T00:51:25.482Z,19.07
2023-02-16T00:54:13.305Z,17.70
2023-02-16T00:57:00.320Z,17.80
2023-02-16T00:59:49.559Z,18.20
2023-02-16T01:02:36.526Z,18.60
2023-02-16T01:05:24.052Z,18.73
2023-02-16T01:08:32.395Z,18.47
2023-02-16T01:11:19.682Z,17.50
2023-02-16T01:14:11.133Z,18.17
2023-02-16T01:16:58.256Z,18.07
2023-02-16T01:19:48.714Z,18.23
2023-02-16T01:22:36.393Z,18.50
2023-02-16T01:25:23.764Z,17.20
2023-02-16T01:28:23.590Z,17.27
2023-02-16T01:31:11.887Z,17.60
2023-02-16T01:33:59.643Z,16.97
2023-02-16T01:36:48.041Z,17.10
2023-02-16T01:39:35.443Z,17.40
2023-02-16T01:42:41.266Z,18.00
2023-02-16T01:45:34.866Z,17.57
2023-02-16T01:48:25.925Z,16.67
2023-02-16T01:51:34.322Z,18.30
2023-02-16T01:54:52.536Z,18.07
2023-02-16T01:57:45.228Z,17.27
2023-02-16T02:00:52.380Z,16.87
2023-02-16T02:03:58.260Z,17.50
2023-02-16T02:06:46.263Z,16.13
2023-02-16T02:09:42.351Z,18.70
2023-02-16T02:12:43.117Z,17.07
2023-02-16T02:15:32.160Z,17.17
2023-02-16T02:18:19.157Z,17.00
2023-02-16T02:21:43.793Z,18.67
2023-02-16T02:25:04.777Z,16.83
2023-02-16T02:28:15.281Z,17.73
2023-02-16T02:31:27.698Z,16.30
2023-02-16T02:34:40.992Z,16.77
2023-02-16T02:37:52.781Z,17.27
2023-02-16T02:41:02.077Z,17.83
2023-02-16T02:43:59.177Z,17.60
2023-02-16T02:46:47.167Z,15.60
2023-02-16T02:49:34.484Z,21.60
2023-02-16T02:52:22.544Z,17.60
2023-02-16T02:55:28.123Z,16.70
2023-02-16T02:58:34.308Z,17.03
2023-02-16T03:01:23.651Z,17.27
2023-02-16T03:04:15.710Z,16.40
2023-02-16T03:07:04.993Z,17.10
2023-02-16T03:10:11.916Z,16.93
2023-02-16T03:13:01.579Z,17.13
2023-02-16T03:15:51.265Z,16.90
2023-02-16T03:19:00.044Z,17.53
2023-02-16T03:22:06.352Z,15.60
2023-02-16T03:25:11.923Z,15.53
2023-02-16T03:28:20.258Z,14.30
2023-02-16T03:31:09.866Z,15.20
2023-02-16T03:33:57.432Z,14.97
2023-02-16T03:36:48.537Z,15.97
2023-02-16T03:39:55.578Z,18.00
2023-02-16T03:42:49.889Z,15.63
2023-02-16T03:45:41.073Z,14.87
2023-02-16T03:48:28.122Z,15.37
2023-02-16T03:51:15.123Z,15.40
2023-02-16T03:54:02.353Z,14.87
2023-02-16T03:56:49.353Z,14.80
2023-02-16T03:59:36.268Z,15.53
2023-02-16T04:02:23.277Z,15.97
2023-02-16T04:05:10.260Z,15.20
2023-02-16T04:07:57.443Z,14.83
2023-02-16T04:10:44.680Z,15.00
2023-02-16T04:13:31.608Z,14.67
2023-02-16T04:16:18.698Z,14.97
2023-02-16T04:19:07.503Z,15.70
2023-02-16T04:21:54.482Z,17.43
2023-02-16T04:24:41.438Z,14.90
2023-02-16T04:27:28.560Z,15.37
2023-02-16T04:30:22.634Z,16.70
2023-02-16T04:33:09.793Z,12.73
2023-02-16T04:35:56.726Z,15.37
2023-02-16T04:38:43.844Z,14.73
2023-02-16T04:41:30.844Z,15.03
2023-02-16T04:44:17.953Z,14.90
2023-02-16T04:47:05.287Z,14.50
2023-02-16T04:49:53.136Z,15.07
2023-02-16T04:52:41.422Z,14.63
2023-02-16T04:55:28.447Z,15.60
2023-02-16T04:58:16.929Z,14.03
2023-02-16T05:01:04.768Z,13.07
2023-02-16T05:03:52.296Z,12.80
2023-02-16T05:06:39.531Z,13.20
2023-02-16T05:09:26.528Z,13.60
2023-02-16T05:12:32.374Z,14.47
2023-02-16T05:15:19.420Z,13.13
2023-02-16T05:18:06.419Z,13.17
2023-02-16T05:21:12.012Z,12.47
2023-02-16T05:24:01.014Z,12.40
2023-02-16T05:26:47.992Z,12.23
2023-02-16T05:29:35.094Z,11.93
2023-02-16T05:32:22.242Z,12.20
2023-02-16T05:35:09.345Z,12.17
2023-02-16T05:37:56.361Z,12.07
2023-02-16T05:40:43.318Z,12.43
2023-02-16T05:43:30.325Z,13.23
2023-02-16T05:46:17.322Z,12.20
2023-02-16T05:49:05.326Z,12.87
2023-02-16T05:51:52.271Z,13.47
2023-02-16T05:54:39.275Z,12.83
2023-02-16T05:57:26.333Z,11.83
2023-02-16T06:00:14.086Z,11.37
2023-02-16T06:03:01.090Z,12.07
2023-02-16T06:05:53.823Z,10.77
2023-02-16T06:08:40.879Z,12.17
2023-02-16T06:11:36.883Z,11.63
2023-02-16T06:14:24.021Z,10.90
2023-02-16T06:17:10.961Z,11.77
2023-02-16T06:19:57.921Z,11.13
2023-02-16T06:22:44.836Z,11.77
2023-02-16T06:25:31.738Z,11.57
2023-02-16T06:28:18.674Z,11.90
2023-02-16T06:31:05.987Z,12.37
2023-02-16T06:33:54.469Z,11.50
2023-02-16T06:36:42.726Z,11.10
2023-02-16T06:39:29.909Z,11.90
2023-02-16T06:42:16.905Z,11.53
2023-02-16T06:45:04.409Z,11.50
2023-02-16T06:47:51.345Z,11.37
2023-02-16T06:50:57.149Z,13.17
2023-02-16T06:53:44.131Z,12.67
2023-02-16T06:56:31.059Z,13.67
2023-02-16T06:59:18.032Z,15.27
2023-02-16T07:02:05.155Z,15.53
2023-02-16T07:04:53.146Z,17.10
2023-02-16T07:07:58.815Z,15.20
2023-02-16T07:10:49.983Z,17.83
2023-02-16T07:13:37.629Z,20.33
2023-02-16T07:16:24.705Z,18.30
2023-02-16T07:19:11.822Z,20.90
2023-02-16T07:22:02.600Z,21.37
2023-02-16T07:25:08.125Z,20.03
2023-02-16T07:27:55.070Z,19.73
2023-02-16T07:30:42.203Z,21.57
2023-02-16T07:33:29.127Z,16.87
2023-02-16T07:36:34.618Z,17.83
2023-02-16T07:39:21.686Z,20.00
2023-02-16T07:42:08.614Z,18.77
2023-02-16T07:45:14.235Z,16.40
2023-02-16T07:48:02.064Z,17.23
2023-02-16T07:50:49.010Z,17.87
2023-02-16T07:53:36.021Z,17.33
2023-02-16T07:56:31.500Z,17.33
2023-02-16T07:59:18.435Z,18.27
2023-02-16T08:02:05.446Z,17.40
2023-02-16T08:04:52.798Z,17.33
2023-02-16T08:07:41.041Z,15.97
2023-02-16T08:10:28.036Z,15.77
2023-02-16T08:13:15.071Z,15.87
2023-02-16T08:16:02.193Z,15.03
2023-02-16T08:18:50.811Z,15.03
2023-02-16T08:21:39.232Z,15.10
2023-02-16T08:24:26.727Z,14.70
2023-02-16T08:27:13.756Z,13.80
2023-02-16T08:30:01.058Z,14.30
2023-02-16T08:32:50.793Z,14.63
2023-02-16T08:35:38.595Z,14.50
2023-02-16T08:38:25.570Z,14.57
2023-02-16T08:41:12.543Z,14.37
2023-02-16T08:44:00.832Z,15.47
2023-02-16T08:46:49.389Z,14.87
2023-02-16T08:49:36.509Z,16.23
2023-02-16T08:52:23.464Z,14.63
2023-02-16T08:55:10.384Z,14.07
2023-02-16T08:57:57.305Z,15.93
2023-02-16T09:00:44.270Z,16.33
2023-02-16T09:03:32.598Z,15.80
2023-02-16T09:06:21.803Z,16.13
2023-02-16T09:09:09.576Z,15.23
2023-02-16T09:11:58.026Z,15.53
2023-02-16T09:14:45.465Z,15.80
2023-02-16T09:17:32.504Z,14.60
2023-02-16T09:20:40.139Z,15.80
2023-02-16T09:23:27.237Z,16.23
2023-02-16T09:26:22.898Z,14.23
2023-02-16T09:29:12.352Z,17.40
2023-02-16T09:31:59.636Z,16.40
2023-02-16T09:34:49.984Z,17.23
2023-02-16T09:37:36.949Z,16.57
2023-02-16T09:40:24.711Z,15.87
2023-02-16T09:43:49.314Z,15.93
2023-02-16T09:46:37.868Z,16.50
2023-02-16T09:49:45.620Z,17.47
2023-02-16T09:52:40.342Z,17.40
2023-02-16T09:56:06.912Z,17.80
2023-02-16T09:59:28.379Z,17.00
2023-02-16T10:02:15.270Z,16.67
2023-02-16T10:05:28.147Z,16.10
2023-02-16T10:08:24.826Z,17.53
2023-02-16T10:11:38.058Z,16.37
2023-02-16T10:14:33.514Z,17.87
2023-02-16T10:17:46.940Z,17.83
2023-02-16T10:20:42.376Z,17.00
2023-02-16T10:23:46.350Z,17.17
2023-02-16T10:26:38.511Z,17.80
2023-02-16T10:29:26.921Z,19.03
2023-02-16T10:32:26.966Z,18.53
2023-02-16T10:35:18.092Z,16.90
2023-02-16T10:38:27.734Z,17.77
2023-02-16T10:41:31.509Z,18.40
2023-02-16T10:44:25.085Z,17.33
2023-02-16T10:47:27.022Z,16.93
2023-02-16T10:50:43.606Z,17.00
2023-02-16T10:53:39.760Z,17.10
2023-02-16T10:56:45.380Z,17.20
2023-02-16T10:59:45.115Z,16.27
2023-02-16T11:02:39.005Z,17.53
2023-02-16T11:05:26.192Z,17.07
2023-02-16T11:08:14.077Z,16.47
2023-02-16T11:11:09.530Z,16.93
2023-02-16T11:14:25.058Z,16.87
2023-02-16T11:17:16.473Z,17.50
2023-02-16T11:20:06.630Z,17.73
2023-02-16T11:22:53.594Z,17.53
2023-02-16T11:25:40.785Z,17.80
2023-02-16T11:28:47.858Z,18.30
2023-02-16T11:31:39.417Z,17.90
2023-02-16T11:34:33.487Z,17.33
2023-02-16T11:37:33.926Z,22.10
2023-02-16T11:40:26.997Z,20.10
2023-02-16T11:43:18.283Z,18.07
2023-02-16T11:46:17.980Z,17.73
2023-02-16T11:49:37.124Z,17.13
2023-02-16T11:52:23.973Z,18.37
2023-02-16T11:55:22.081Z,18.77
2023-02-16T11:58:24.623Z,20.80
2023-02-16T12:01:24.488Z,18.93
2023-02-16T12:04:35.637Z,17.77
2023-02-16T12:07:49.231Z,17.80
2023-02-16T12:10:47.981Z,17.10
2023-02-16T12:13:41.948Z,17.53
2023-02-16T12:16:40.633Z,20.27
2023-02-16T12:19:39.544Z,17.93
2023-02-16T12:22:49.266Z,17.77
2023-02-16T12:25:42.145Z,16.93
2023-02-16T12:28:52.455Z,18.67
2023-02-16T12:32:10.550Z,17.90
2023-02-16T12:35:09.885Z,18.50
2023-02-16T12:38:10.063Z,17.63
2023-02-16T12:41:08.261Z,17.83
2023-02-16T12:44:03.001Z,18.03
2023-02-16T12:47:02.806Z,16.77
2023-02-16T12:50:01.847Z,16.80
2023-02-16T12:52:55.828Z,17.67
2023-02-16T12:55:48.950Z,18.90
2023-02-16T12:58:40.375Z,17.80
2023-02-16T13:01:30.522Z,17.57
2023-02-16T13:04:24.003Z,17.37
2023-02-16T13:07:17.994Z,18.03
2023-02-16T13:10:14.712Z,18.47
2023-02-16T13:13:09.200Z,18.10
2023-02-16T13:16:01.052Z,17.63
2023-02-16T13:18:50.437Z,17.50
2023-02-16T13:21:53.200Z,18.10
2023-02-16T13:25:01.272Z,16.67
2023-02-16T13:28:27.510Z,17.50
2023-02-16T13:31:29.298Z,19.17
2023-02-16T13:34:42.292Z,16.80
2023-02-16T13:37:47.775Z,17.57
2023-02-16T13:40:41.654Z,18.17
2023-02-16T13:43:31.846Z,16.23
2023-02-16T13:46:28.492Z,16.83
2023-02-16T13:49:42.973Z,16.97
2023-02-16T13:52:32.715Z,16.80
2023-02-16T13:55:31.073Z,16.97
2023-02-16T13:58:18.120Z,17.50
2023-02-16T14:01:34.033Z,17.77
2023-02-16T14:04:23.785Z,16.40
2023-02-16T14:07:22.461Z,17.53
2023-02-16T14:10:14.010Z,18.43
2023-02-16T14:13:11.901Z,18.17
2023-02-16T14:16:07.997Z,17.80
2023-02-16T14:19:19.283Z,16.77
2023-02-16T14:22:12.437Z,18.83
2023-02-16T14:25:02.895Z,18.43
2023-02-16T14:27:52.694Z,18.00
2023-02-16T14:30:42.613Z,17.97
2023-02-16T14:33:40.018Z,18.70
2023-02-16T14:36:27.638Z,18.13
2023-02-16T14:39:18.851Z,19.60
2023-02-16T14:42:16.073Z,18.73
2023-02-16T14:45:27.869Z,18.33
2023-02-16T14:48:56.729Z,18.10
2023-02-16T14:52:11.740Z,17.93
2023-02-16T14:55:29.678Z,19.30
2023-02-16T14:58:47.421Z,19.50
2023-02-16T15:01:45.774Z,19.73
2023-02-16T15:04:35.086Z,20.03
2023-02-16T15:07:23.610Z,20.37
2023-02-16T15:10:14.382Z,18.97
2023-02-16T15:13:01.443Z,18.97
2023-02-16T15:15:52.164Z,21.03
2023-02-16T15:18:48.612Z,19.77
2023-02-16T15:21:35.628Z,20.00
2023-02-16T15:24:24.204Z,20.93
2023-02-16T15:27:21.631Z,21.90
2023-02-16T15:30:26.298Z,23.67
2023-02-16T15:33:22.889Z,22.57
2023-02-16T15:36:13.475Z,20.43
2023-02-16T15:39:05.855Z,20.93
2023-02-16T15:42:09.584Z,21.20
2023-02-16T15:44:57.026Z,21.37
2023-02-16T15:47:46.062Z,25.27
2023-02-16T15:50:33.278Z,23.10
2023-02-16T15:53:34.869Z,23.23
2023-02-16T15:56:52.293Z,22.90
2023-02-16T15:59:46.737Z,23.00
2023-02-16T16:02:40.470Z,24.13
2023-02-16T16:05:39.785Z,24.90
2023-02-16T16:08:28.756Z,23.17
2023-02-16T16:11:15.951Z,24.50
2023-02-16T16:14:06.077Z,25.43
2023-02-16T16:16:54.102Z,20.70
2023-02-16T16:19:41.105Z,21.00
2023-02-16T16:22:39.315Z,23.60
2023-02-16T16:25:44.966Z,20.80
2023-02-16T16:28:33.328Z,20.27
2023-02-16T16:31:20.708Z,18.97
2023-02-16T16:34:29.610Z,18.10
2023-02-16T16:37:33.106Z,17.93
2023-02-16T16:40:24.959Z,17.47
2023-02-16T16:43:17.388Z,18.23
2023-02-16T16:46:23.190Z,17.47
2023-02-16T16:49:15.963Z,18.07
2023-02-16T16:52:04.030Z,17.17
2023-02-16T16:54:51.737Z,18.37
2023-02-16T16:57:38.765Z,18.17
2023-02-16T17:00:30.940Z,19.53
2023-02-16T17:03:18.596Z,19.13
2023-02-16T17:06:06.878Z,19.07
2023-02-16T17:08:55.241Z,18.03
2023-02-16T17:11:42.283Z,18.77
2023-02-16T17:14:29.225Z,17.80
2023-02-16T17:17:16.388Z,18.23
2023-02-16T17:20:03.689Z,17.77
2023-02-16T17:22:50.976Z,19.00
2023-02-16T17:25:38.031Z,18.50
2023-02-16T17:28:25.023Z,18.23
2023-02-16T17:31:12.281Z,17.93
2023-02-16T17:33:59.479Z,16.63
2023-02-16T17:36:46.589Z,17.77
2023-02-16T17:39:35.053Z,18.77
2023-02-16T17:42:22.281Z,18.70
2023-02-16T17:45:09.504Z,17.97
2023-02-16T17:47:56.523Z,18.23
2023-02-16T17:50:44.091Z,17.30
2023-02-16T17:53:31.053Z,18.97
2023-02-16T17:56:21.587Z,18.27
2023-02-16T17:59:11.289Z,18.60
2023-02-16T18:01:58.255Z,18.17
2023-02-16T18:04:45.252Z,17.90
2023-02-16T18:07:32.217Z,19.60
2023-02-16T18:10:51.284Z,21.07
2023-02-16T18:13:38.606Z,22.80
2023-02-16T18:16:27.280Z,19.87
2023-02-16T18:19:14.804Z,18.03
2023-02-16T18:22:02.068Z,18.30
2023-02-16T18:24:49.611Z,19.70
2023-02-16T18:27:36.586Z,18.57
2023-02-16T18:30:24.153Z,20.60
2023-02-16T18:33:11.146Z,19.73
2023-02-16T18:35:58.100Z,19.63
2023-02-16T18:38:45.036Z,19.63
2023-02-16T18:41:32.379Z,18.10
2023-02-16T18:44:19.312Z,18.40
2023-02-16T18:47:07.565Z,19.53
2023-02-16T18:49:55.194Z,19.20
2023-02-16T18:52:43.336Z,18.70
2023-02-16T18:55:33.047Z,17.87
2023-02-16T18:58:20.072Z,17.67
2023-02-16T19:01:25.196Z,17.33
2023-02-16T19:04:12.738Z,18.35
2023-02-16T19:06:59.853Z,18.60
2023-02-16T19:09:46.792Z,18.27
2023-02-16T19:12:33.787Z,16.00
2023-02-16T19:15:20.823Z,16.90
2023-02-16T19:18:07.804Z,16.33
2023-02-16T19:20:55.204Z,15.83
2023-02-16T19:23:42.173Z,15.90
2023-02-16T19:26:29.122Z,15.77
2023-02-16T19:29:16.153Z,15.50
2023-02-16T19:32:03.259Z,15.20
2023-02-16T19:34:50.318Z,14.90
2023-02-16T19:37:37.407Z,15.80
2023-02-16T19:40:24.458Z,14.97
2023-02-16T19:43:11.418Z,15.43
2023-02-16T19:45:58.392Z,15.73
2023-02-16T19:48:48.817Z,15.77
2023-02-16T19:51:35.740Z,15.60
2023-02-16T19:54:24.745Z,15.20
2023-02-16T19:57:11.854Z,16.63
2023-02-16T19:59:58.881Z,15.57
2023-02-16T20:02:45.900Z,14.67
2023-02-16T20:05:33.552Z,16.17
2023-02-16T20:08:20.460Z,14.90
2023-02-16T20:11:08.467Z,15.17
2023-02-16T20:13:56.320Z,15.10
2023-02-16T20:16:43.677Z,15.00
2023-02-16T20:19:30.625Z,15.63
2023-02-16T20:22:17.615Z,15.80
2023-02-16T20:25:04.944Z,15.67
2023-02-16T20:27:51.985Z,15.07
2023-02-16T20:30:38.947Z,16.03
2023-02-16T20:33:25.980Z,15.03
2023-02-16T20:36:13.200Z,15.50
2023-02-16T20:39:00.153Z,15.27
2023-02-16T20:41:47.164Z,14.77
2023-02-16T20:44:34.116Z,14.83
2023-02-16T20:47:21.055Z,14.40
2023-02-16T20:50:09.155Z,15.17
2023-02-16T20:52:56.150Z,15.60
2023-02-16T20:55:43.100Z,15.13
2023-02-16T20:58:30.501Z,15.63
2023-02-16T21:01:29.634Z,14.93
2023-02-16T21:04:18.195Z,15.53
2023-02-16T21:07:05.165Z,15.43
2023-02-16T21:09:52.301Z,14.70
2023-02-16T21:12:39.429Z,15.80
2023-02-16T21:15:26.478Z,15.37
2023-02-16T21:18:13.681Z,15.40
2023-02-16T21:21:01.160Z,16.50
2023-02-16T21:23:50.774Z,16.03
2023-02-16T21:26:37.925Z,14.77
2023-02-16T21:29:24.916Z,16.60
2023-02-16T21:32:12.164Z,16.80
2023-02-16T21:34:59.284Z,17.77
2023-02-16T21:37:46.275Z,16.50
2023-02-16T21:40:51.947Z,16.00
2023-02-16T21:43:38.934Z,16.57
2023-02-16T21:46:27.074Z,16.90
2023-02-16T21:49:19.031Z,16.50
2023-02-16T21:52:06.000Z,17.20
2023-02-16T21:55:11.399Z,17.07
2023-02-16T21:57:58.320Z,15.60
2023-02-16T22:00:50.731Z,15.60
2023-02-16T22:03:38.222Z,16.07
2023-02-16T22:06:27.696Z,16.60
2023-02-16T22:09:17.578Z,16.60
2023-02-16T22:12:04.572Z,16.40
2023-02-16T22:14:51.510Z,16.67
2023-02-16T22:17:38.570Z,15.97
2023-02-16T22:20:25.501Z,15.17
2023-02-16T22:23:12.527Z,17.10
2023-02-16T22:25:59.638Z,15.80
2023-02-16T22:28:46.548Z,15.90
2023-02-16T22:31:34.293Z,16.20
2023-02-16T22:34:22.336Z,15.10
2023-02-16T22:37:09.350Z,15.23
2023-02-16T22:39:56.396Z,15.77
2023-02-16T22:42:43.365Z,16.83
2023-02-16T22:45:30.534Z,16.07
2023-02-16T22:48:17.669Z,15.70
2023-02-16T22:51:07.131Z,15.23
2023-02-16T22:53:54.127Z,16.93
2023-02-16T22:56:41.325Z,15.03
2023-02-16T22:59:28.269Z,15.37
2023-02-16T23:02:15.240Z,16.03
2023-02-16T23:05:02.192Z,16.20
2023-02-16T23:07:49.169Z,15.67
2023-02-16T23:10:37.807Z,15.33
2023-02-16T23:13:25.226Z,14.60
2023-02-16T23:16:17.444Z,16.07
2023-02-16T23:19:04.413Z,15.37
2023-02-16T23:21:51.822Z,16.50
2023-02-16T23:24:40.687Z,15.50
2023-02-16T23:27:27.641Z,16.57
2023-02-16T23:30:14.725Z,16.07
2023-02-16T23:33:01.766Z,16.13
2023-02-16T23:35:48.770Z,15.47
2023-02-16T23:38:36.439Z,14.80
2023-02-16T23:41:23.410Z,14.63
2023-02-16T23:44:13.019Z,14.47
2023-02-16T23:47:00.005Z,15.57
2023-02-16T23:49:47.009Z,15.47
2023-02-16T23:52:33.965Z,15.53
2023-02-16T23:55:21.221Z,14.90
2023-02-16T23:58:08.319Z,15.57
